Time;durP1;ratioP1;P1;durP2;ratioP2;P2;SDS_P1;SDS_P2;PMS_P1;PMS_P2;Temp;Humidity;BMP_temperature;BMP_pressure;BME280_temperature;BME280_humidity;BME280_pressure;Samples;Min_cycle;Max_cycle;Signal;HPM_P1;HPM_P2
2023/07/05 00:00:50;;;;;;;40.40;25.50;;;;;;;15.38;69.98;100189.95;125609;1302;640590;-67
2023/07/05 00:09:15;;;;;;;37.10;23.00;;;;;;;15.25;70.46;100190.35;127072;1287;115378;-65
2023/07/05 00:17:20;;;;;;;37.40;24.30;;;;;;;15.12;70.65;100188.52;125838;1315;114885;-62
2023/07/05 00:21:24;;;;;;;33.10;23.70;;;;;;;15.06;70.89;100186.45;125350;1306;115051;-63
2023/07/05 00:25:25;;;;;;;36.60;22.90;;;;;;;15.00;71.03;100186.28;123938;1332;114959;-63
2023/07/05 00:33:53;;;;;;;31.90;22.90;;;;;;;14.93;71.63;100179.95;125659;1301;638611;-61
2023/07/05 00:46:11;;;;;;;29.00;21.20;;;;;;;14.74;71.96;100171.52;122187;1296;5421656;-62
2023/07/05 00:50:18;;;;;;;33.40;23.00;;;;;;;14.68;72.12;100169.23;126278;1295;114840;-62
2023/07/05 00:54:19;;;;;;;34.10;22.40;;;;;;;14.63;72.19;100164.75;125287;1321;114914;-62
2023/07/05 00:58:24;;;;;;;41.20;26.70;;;;;;;14.56;72.27;100158.91;124759;1326;114989;-62
2023/07/05 01:02:15;;;;;;;41.30;26.40;;;;;;;14.51;72.65;100161.75;124025;1331;129914;-63
2023/07/05 01:14:59;;;;;;;38.30;25.10;;;;;;;14.39;73.10;100163.31;127680;1280;129084;-66
2023/07/05 01:18:56;;;;;;;;;;;;;;;;;;;;;
2023/07/05 01:23:02;;;;;;;36.80;24.30;;;;;;;14.30;73.35;100160.33;123225;1294;5428299;-65
2023/07/05 01:39:42;;;;;;;35.30;24.30;;;;;;;14.14;74.18;100159.22;125514;1295;129823;-67
2023/07/05 01:43:45;;;;;;;34.30;24.60;;;;;;;14.10;74.41;100160.52;125228;1305;118178;-64
2023/07/05 01:51:59;;;;;;;38.10;25.50;;;;;;;14.03;75.19;100155.61;125002;1307;114956;-64
2023/07/05 01:56:05;;;;;;;43.20;25.80;;;;;;;14.01;74.79;100155.23;125642;1316;114962;-67
2023/07/05 02:00:09;;;;;;;33.90;23.70;;;;;;;13.97;75.14;100155.64;125902;1316;126960;-62
2023/07/05 02:04:01;;;;;;;35.90;24.50;;;;;;;13.94;75.26;100157.84;126001;1301;115481;-62
2023/07/05 02:08:05;;;;;;;39.30;24.40;;;;;;;13.89;75.25;100147.91;125571;1306;115215;-61
2023/07/05 02:16:08;;;;;;;37.30;24.20;;;;;;;13.79;75.46;100146.77;124931;1311;114807;-63
2023/07/05 02:24:11;;;;;;;40.40;25.90;;;;;;;13.72;75.54;100148.88;123867;1317;114872;-66
2023/07/05 02:32:38;;;;;;;41.50;26.30;;;;;;;13.67;75.69;100152.91;125946;1297;635996;-62
2023/07/05 02:36:41;;;;;;;40.30;25.80;;;;;;;13.63;75.78;100151.45;128072;1274;128319;-68
2023/07/05 02:40:34;;;;;;;38.30;27.00;;;;;;;13.60;75.85;100150.02;127218;1303;114879;-68
2023/07/05 02:44:37;;;;;;;38.70;26.30;;;;;;;13.56;75.91;100148.11;122539;1285;5605551;-64
2023/07/05 02:48:39;;;;;;;38.00;24.70;;;;;;;13.53;76.21;100140.91;125357;1321;114788;-65
2023/07/05 02:52:40;;;;;;;38.70;25.40;;;;;;;13.50;76.29;100136.23;124831;1329;114811;-64
2023/07/05 03:01:15;;;;;;;42.40;28.60;;;;;;;13.51;76.82;100127.77;126272;1298;639727;-62
2023/07/05 03:09:21;;;;;;;38.90;26.70;;;;;;;13.56;77.11;100122.30;127522;1283;115295;-63
2023/07/05 03:12:42;;;;;;;40.80;26.90;;;;;;;13.59;76.90;100126.54;122305;1290;5418909;-66
2023/07/05 03:16:13;;;;;;;;;;;;;;;;;;;;;
2023/07/05 03:20:15;;;;;;;42.50;26.60;;;;;;;13.66;77.10;100128.59;126425;1292;114830;-62
2023/07/05 03:24:17;;;;;;;40.20;26.40;;;;;;;13.71;77.11;100133.48;125833;1312;128537;-66
2023/07/05 03:32:36;;;;;;;;;;;;;;;;;;;;;
2023/07/05 03:36:33;;;;;;;38.60;26.30;;;;;;;13.97;77.28;100125.81;127614;1288;127997;-67
2023/07/05 03:40:25;;;;;;;;;;;;;;;;;;;;;
2023/07/05 03:48:42;;;;;;;;;;;;;;;;;;;;;
2023/07/05 03:52:35;;;;;;;40.60;26.20;;;;;;;14.47;77.17;100120.87;125842;1309;129522;-62
2023/07/05 04:00:37;;;;;;;42.60;27.50;;;;;;;14.73;76.99;100113.20;125655;1305;114813;-61
2023/07/05 04:08:55;;;;;;;43.60;29.50;;;;;;;15.02;76.45;100098.58;125848;1299;637874;-62
2023/07/05 04:12:57;;;;;;;43.20;27.60;;;;;;;15.15;75.83;100097.27;128199;1275;128298;-63
2023/07/05 04:16:43;;;;;;;;;;;;;;;;;;;;;
2023/07/05 04:20:32;;;;;;;38.10;25.30;;;;;;;15.44;75.47;100099.86;127791;1284;115640;-66
2023/07/05 04:23:59;;;;;;;;;;;;;;;;;;;;;
2023/07/05 04:27:10;;;;;;;40.10;27.80;;;;;;;15.77;75.11;100099.83;128527;1277;114889;-66
2023/07/05 04:30:51;;;;;;;39.80;26.50;;;;;;;15.92;74.70;100096.52;128819;1276;114860;-66
2023/07/05 04:38:01;;;;;;;40.60;26.40;;;;;;;16.44;74.66;100098.23;127226;1287;115590;-65
2023/07/05 04:42:03;;;;;;;;;;;;;;;;;;;;;
2023/07/05 04:45:55;;;;;;;39.10;27.20;;;;;;;17.04;73.96;100087.91;126162;1294;114890;-64
2023/07/05 04:49:04;;;;;;;38.20;25.20;;;;;;;17.42;73.61;100083.67;125971;1313;114847;-66
2023/07/05 04:52:13;;;;;;;35.50;24.80;;;;;;;17.92;73.60;100083.52;126483;1287;128151;-67
2023/07/05 04:56:17;;;;;;;38.90;26.10;;;;;;;18.55;72.59;100084.70;127142;1307;115283;-65
2023/07/05 05:00:18;;;;;;;37.90;26.40;;;;;;;19.59;72.02;100082.79;126746;1299;115037;-64
2023/07/05 05:04:19;;;;;;;38.60;25.30;;;;;;;20.89;69.68;100078.04;125704;1317;114810;-67
2023/07/05 05:08:20;;;;;;;38.10;24.60;;;;;;;22.12;67.46;100070.80;125279;1303;115069;-66
2023/07/05 05:16:38;;;;;;;;;;;;;;;;;;;;;
2023/07/05 05:24:46;;;;;;;33.30;23.40;;;;;;;26.10;58.99;100047.09;127275;1289;115220;-66
2023/07/05 05:29:12;;;;;;;32.60;23.70;;;;;;;26.56;56.34;100049.52;123388;1294;5698430;-67
2023/07/05 05:32:55;;;;;;;37.20;26.10;;;;;;;27.01;55.37;100049.14;125824;1311;114851;-65
2023/07/05 05:40:52;;;;;;;;;;;;;;;;;;;;;
2023/07/05 05:48:51;;;;;;;33.00;25.40;;;;;;;28.03;49.55;100034.38;126295;1293;635851;-65
2023/07/05 05:52:46;;;;;;;31.40;24.40;;;;;;;28.00;48.20;100039.13;128982;1280;120393;-68
2023/07/05 05:56:48;;;;;;;32.70;23.50;;;;;;;28.07;47.59;100036.08;127828;1275;114941;-66
2023/07/05 06:00:40;;;;;;;;;;;;;;;;;;;;;
2023/07/05 06:04:42;;;;;;;29.40;23.70;;;;;;;28.37;46.34;100036.55;125249;1302;114975;-65
2023/07/05 06:13:10;;;;;;;;;;;;;;;;;;;;;
2023/07/05 06:17:05;;;;;;;30.30;23.90;;;;;;;29.51;43.85;100031.23;127929;1279;120138;-67
2023/07/05 06:21:08;;;;;;;;;;;;;;;;;;;;;
2023/07/05 06:25:12;;;;;;;33.50;24.80;;;;;;;30.37;42.10;100030.13;123476;1288;5434452;-66
2023/07/05 06:29:08;;;;;;;33.80;26.00;;;;;;;30.58;41.70;100022.89;125809;1317;114878;-65
2023/07/05 06:32:53;;;;;;;30.80;23.80;;;;;;;30.96;41.68;100018.98;125011;1308;115064;-65
2023/07/05 06:36:52;;;;;;;25.50;22.60;;;;;;;31.30;40.98;100019.55;124462;1326;115029;-67
2023/07/05 06:45:16;;;;;;;;;;;;;;;;;;;;;
2023/07/05 06:49:21;;;;;;;29.00;20.00;;;;;;;32.01;39.15;100018.23;127772;1285;120987;-67
2023/07/05 06:53:23;;;;;;;29.90;20.90;;;;;;;32.27;39.01;100016.23;126696;1291;115003;-65
2023/07/05 06:57:26;;;;;;;;;;;;;;;;;;;;;
2023/07/05 07:01:16;;;;;;;25.10;20.10;;;;;;;32.65;37.52;100015.27;124129;1318;114912;-68
2023/07/05 07:05:16;;;;;;;28.20;20.70;;;;;;;32.59;37.11;100013.73;123414;1321;114860;-66
2023/07/05 07:09:12;;;;;;;;;;;;;;;;;;;;;
2023/07/05 07:17:42;;;;;;;21.40;19.10;;;;;;;33.69;36.95;99989.91;125524;1301;639184;-64
2023/07/05 07:21:44;;;;;;;21.90;18.60;;;;;;;34.01;36.23;99985.77;127824;1284;120145;-65
2023/07/05 07:25:48;;;;;;;22.90;18.20;;;;;;;34.12;35.48;99978.38;127749;1294;114935;-64
2023/07/05 07:33:51;;;;;;;21.20;17.60;;;;;;;34.66;35.53;99971.89;126379;1308;114916;-67
2023/07/05 07:37:41;;;;;;;;;;;;;;;;;;;;;
2023/07/05 07:41:43;;;;;;;24.00;16.20;;;;;;;35.92;34.75;99964.66;124449;1313;114858;-66
2023/07/05 07:45:36;;;;;;;17.40;14.30;;;;;;;36.46;34.22;99957.75;124707;1313;121481;-67
2023/07/05 07:49:37;;;;;;;19.40;15.20;;;;;;;36.87;33.49;99956.14;124597;1321;114996;-68
2023/07/05 07:53:27;;;;;;;18.10;14.40;;;;;;;37.25;32.87;99955.48;123479;1324;115008;-71
2023/07/05 07:58:02;;;;;;;18.50;14.20;;;;;;;37.65;32.55;99956.64;125272;1303;639272;-70
2023/07/05 08:02:16;;;;;;;18.80;14.90;;;;;;;37.87;32.39;99950.98;127215;1287;120436;-69
2023/07/05 08:06:20;;;;;;;20.20;14.10;;;;;;;37.88;31.37;99950.64;126373;1312;114891;-69
2023/07/05 08:10:24;;;;;;;17.70;13.50;;;;;;;37.86;31.35;99951.17;121725;1320;5439354;-69
2023/07/05 08:14:25;;;;;;;20.00;14.80;;;;;;;37.95;30.95;99946.95;125436;1315;114929;-68
2023/07/05 08:18:26;;;;;;;22.80;13.30;;;;;;;38.00;30.48;99944.48;124827;1309;115048;-69
2023/07/05 08:27:00;;;;;;;15.70;12.20;;;;;;;38.09;29.45;99931.90;126207;1299;638635;-69
2023/07/05 08:31:02;;;;;;;16.50;11.00;;;;;;;37.88;30.12;99931.89;128019;1279;120058;-70
2023/07/05 08:39:00;;;;;;;;;;;;;;;;;;;;;
2023/07/05 08:47:00;;;;;;;10.90;7.40;;;;;;;37.39;29.86;99920.39;125431;1311;115251;-67
2023/07/05 08:51:07;;;;;;;14.20;9.40;;;;;;;37.53;29.67;99914.16;125332;1307;114969;-67
2023/07/05 08:55:08;;;;;;;13.30;8.80;;;;;;;37.57;29.50;99910.16;125031;1307;121370;-68
2023/07/05 08:59:09;;;;;;;13.20;8.00;;;;;;;37.62;29.16;99911.71;124745;1313;115064;-69
2023/07/05 09:07:20;;;;;;;9.90;8.10;;;;;;;37.35;29.31;99901.45;124249;1331;116551;-68
2023/07/05 09:11:15;;;;;;;;;;;;;;;;;;;;;
2023/07/05 09:24:00;;;;;;;9.40;8.20;;;;;;;37.04;28.52;99897.61;125590;1310;114930;-67
2023/07/05 09:27:32;;;;;;;13.50;8.10;;;;;;;36.86;28.67;99894.91;125258;1304;114974;-67
2023/07/05 09:31:36;;;;;;;10.80;8.30;;;;;;;36.49;28.50;99895.28;124519;1330;114912;-67
2023/07/05 09:35:44;;;;;;;10.20;8.10;;;;;;;36.19;28.23;99894.20;123617;1329;119532;-68
2023/07/05 09:39:49;;;;;;;9.90;7.70;;;;;;;35.72;28.13;99886.89;123403;1321;115008;-68
2023/07/05 09:47:55;;;;;;;11.50;7.20;;;;;;;35.32;28.40;99878.38;124091;1318;114830;-68
2023/07/05 09:51:56;;;;;;;10.50;7.40;;;;;;;34.97;27.92;99878.44;123716;1312;115101;-68
2023/07/05 10:04:30;;;;;;;8.70;6.60;;;;;;;33.93;27.34;99862.26;127528;1292;119918;-65
2023/07/05 10:08:32;;;;;;;9.40;6.60;;;;;;;33.44;28.07;99857.95;127797;1292;114945;-68
2023/07/05 10:12:36;;;;;;;7.60;6.00;;;;;;;33.20;28.72;99850.27;122284;1299;5439641;-63
2023/07/05 10:16:37;;;;;;;8.40;6.20;;;;;;;33.06;29.33;99848.62;124871;1319;114974;-68
2023/07/05 10:25:03;;;;;;;7.30;3.80;;;;;;;33.10;30.15;99830.54;125197;1314;638649;-68
2023/07/05 10:29:06;;;;;;;6.00;5.30;;;;;;;33.16;29.69;99827.19;128679;1277;120071;-68
2023/07/05 10:33:31;;;;;;;6.60;4.50;;;;;;;33.12;29.70;99825.80;126945;1287;116406;-67
2023/07/05 10:37:15;;;;;;;5.90;5.20;;;;;;;33.16;30.27;99825.23;122363;1293;5485095;-64
2023/07/05 10:41:18;;;;;;;7.10;4.80;;;;;;;33.24;30.02;99826.23;126132;1306;114934;-66
2023/07/05 10:45:22;;;;;;;7.70;5.00;;;;;;;33.23;29.68;99824.48;124874;1311;114984;-64
2023/07/05 10:49:24;;;;;;;4.90;4.40;;;;;;;33.18;29.62;99825.08;124013;1334;119848;-66
2023/07/05 10:53:26;;;;;;;;;;;;;;;;;;;;;
2023/07/05 11:05:55;;;;;;;;;;;;;;;;;;;;;
2023/07/05 11:09:59;;;;;;;10.90;5.60;;;;;;;33.16;30.70;99799.44;129104;1277;115113;-66
2023/07/05 11:14:27;;;;;;;8.20;5.70;;;;;;;33.26;30.99;99795.01;123457;1283;5616787;-66
2023/07/05 11:18:09;;;;;;;8.90;5.10;;;;;;;33.30;31.41;99791.17;125515;1319;115077;-67
2023/07/05 11:22:13;;;;;;;6.00;4.60;;;;;;;33.41;31.54;99782.14;124960;1308;115234;-67
2023/07/05 11:26:31;;;;;;;;;;;;;;;;;;;;;
2023/07/05 11:30:22;;;;;;;8.80;6.00;;;;;;;33.56;31.63;99777.44;124308;1309;121105;-69
2023/07/05 11:39:00;;;;;;;6.00;5.30;;;;;;;33.95;31.80;99763.95;127726;1295;638650;-66
2023/07/05 11:43:21;;;;;;;11.10;5.20;;;;;;;34.02;31.49;99758.42;128596;1277;120266;-69
2023/07/05 11:47:38;;;;;;;7.60;4.90;;;;;;;34.03;31.38;99750.35;127572;1285;115294;-66
2023/07/05 11:51:42;;;;;;;7.70;5.30;;;;;;;33.98;31.44;99749.85;123423;1290;5451796;-67
2023/07/05 11:55:52;;;;;;;7.90;5.40;;;;;;;33.87;31.48;99750.65;126157;1299;114957;-68
2023/07/05 11:59:48;;;;;;;;;;;;;;;;;;;;;
2023/07/05 12:08:26;;;;;;;9.80;6.40;;;;;;;33.30;31.66;99761.25;124975;1307;121159;-68
2023/07/05 12:12:36;;;;;;;8.00;5.60;;;;;;;32.67;31.86;99764.15;124935;1304;114912;-67
2023/07/05 12:25:04;;;;;;;8.10;5.10;;;;;;;30.32;35.37;99790.80;125846;1295;635963;-67
2023/07/05 12:29:03;;;;;;;9.00;4.90;;;;;;;29.79;36.41;99800.80;128057;1298;120231;-67
2023/07/05 12:33:00;;;;;;;;;;;;;;;;;;;;;
2023/07/05 12:37:10;;;;;;;7.60;4.40;;;;;;;29.08;38.02;99790.64;123726;1288;5433645;-67
2023/07/05 12:41:06;;;;;;;;;;;;;;;;;;;;;
2023/07/05 12:45:23;;;;;;;6.70;3.80;;;;;;;28.80;39.54;99787.16;125922;1299;114858;-67
2023/07/05 12:49:17;;;;;;;;;;;;;;;;;;;;;
2023/07/05 12:53:19;;;;;;;4.20;3.80;;;;;;;28.11;39.90;99789.14;125114;1322;115219;-67
2023/07/05 13:01:51;;;;;;;5.00;4.10;;;;;;;27.28;41.04;99790.77;125770;1294;640560;-70
2023/07/05 13:05:53;;;;;;;6.00;3.60;;;;;;;27.00;41.57;99793.95;128639;1292;119889;-68
2023/07/05 13:10:08;;;;;;;5.60;4.50;;;;;;;26.79;42.05;99789.66;128445;1281;114893;-67
2023/07/05 13:14:20;;;;;;;5.10;3.80;;;;;;;26.68;42.82;99784.02;123606;1283;5448541;-67
2023/07/05 13:18:21;;;;;;;6.10;3.90;;;;;;;26.58;43.12;99783.59;125953;1299;115262;-67
2023/07/05 13:22:21;;;;;;;;;;;;;;;;;;;;;
2023/07/05 13:26:16;;;;;;;;;;;;;;;;;;;;;
2023/07/05 13:30:31;;;;;;;8.40;3.50;;;;;;;26.17;44.28;99796.77;124745;1327;121167;-71
2023/07/05 13:38:55;;;;;;;6.30;4.20;;;;;;;25.69;46.24;99803.34;126294;1292;635910;-64
2023/07/05 13:43:00;;;;;;;6.10;4.20;;;;;;;25.37;47.07;99807.66;128677;1274;120235;-67
2023/07/05 13:50:57;;;;;;;4.40;3.80;;;;;;;24.73;50.30;99807.55;122355;1298;5455042;-65
2023/07/05 13:59:00;;;;;;;10.30;5.30;;;;;;;24.21;51.99;99788.03;124606;1321;115042;-66
2023/07/05 14:03:10;;;;;;;10.00;5.10;;;;;;;24.10;53.24;99782.33;123598;1331;115026;-65
2023/07/05 14:19:57;;;;;;;7.90;4.70;;;;;;;24.45;55.26;99767.34;128494;1277;114829;-67
2023/07/05 14:24:00;;;;;;;9.40;4.40;;;;;;;24.64;55.53;99764.41;123266;1301;5436394;-66
2023/07/05 14:32:05;;;;;;;6.30;4.00;;;;;;;24.85;55.22;99735.59;125351;1323;115023;-66
2023/07/05 14:41:06;;;;;;;8.70;4.10;;;;;;;25.33;55.61;99731.95;126082;1302;642788;-67
2023/07/05 14:44:48;;;;;;;5.40;3.50;;;;;;;25.52;54.66;99717.80;127502;1284;128601;-65
2023/07/05 14:52:42;;;;;;;5.50;3.50;;;;;;;25.80;53.95;99721.14;122140;1292;5419935;-63
2023/07/05 14:56:36;;;;;;;7.40;3.60;;;;;;;25.93;53.43;99727.98;124973;1318;114988;-62
2023/07/05 15:00:38;;;;;;;6.90;3.70;;;;;;;26.00;52.83;99743.01;124506;1321;114893;-62
2023/07/05 15:12:56;;;;;;;8.90;6.90;;;;;;;26.14;53.50;99772.04;126535;1295;636035;-61
2023/07/05 15:16:58;;;;;;;12.30;6.20;;;;;;;26.15;53.75;99788.10;128902;1273;119917;-61
2023/07/05 15:21:01;;;;;;;4.30;3.00;;;;;;;26.09;53.30;99791.17;127997;1282;114882;-62
2023/07/05 15:24:57;;;;;;;;;;;;;;;;;;;;;
2023/07/05 15:28:07;;;;;;;5.10;4.00;;;;;;;25.61;53.61;99776.98;125685;1312;114995;-62
2023/07/05 15:31:12;;;;;;;9.70;4.50;;;;;;;25.48;54.24;99780.65;125683;1302;114912;-62
2023/07/05 15:34:57;;;;;;;6.80;4.30;;;;;;;25.44;54.71;99784.27;125734;1302;114907;-63
2023/07/05 15:39:00;;;;;;;7.00;3.70;;;;;;;25.45;55.04;99781.16;125587;1311;129751;-62
2023/07/05 15:47:02;;;;;;;5.40;3.60;;;;;;;25.50;55.24;99792.83;124428;1313;115082;-60
2023/07/05 15:50:27;;;;;;;9.50;5.10;;;;;;;25.58;55.65;99799.28;123909;1332;114917;-62
2023/07/05 15:54:02;;;;;;;;;;;;;;;;;;;;;
2023/07/05 15:57:26;;;;;;;;;;;;;;;25.57;55.80;99789.60;123322;1327;119684;-62
2023/07/05 16:01:20;;;;;;;;;;;;;;;;;;;;;
2023/07/05 16:05:41;;;;;;;6.50;4.40;;;;;;;25.56;55.48;99801.65;126401;1295;635639;-60
2023/07/05 16:13:45;;;;;;;;;;;;;;;;;;;;;
2023/07/05 16:17:38;;;;;;;;;;;;;;;;;;;;;
2023/07/05 16:21:41;;;;;;;7.00;3.40;;;;;;;25.30;55.82;99777.02;124887;1318;116611;-62
2023/07/05 16:30:00;;;;;;;8.30;4.60;;;;;;;24.94;56.41;99778.45;126284;1297;636012;-62
2023/07/05 16:33:06;;;;;;;6.80;4.40;;;;;;;24.87;56.63;99782.71;128099;1278;128995;-61
2023/07/05 16:36:48;;;;;;;;;;;;;;;;;;;;;
2023/07/05 16:40:53;;;;;;;6.60;4.90;;;;;;;24.79;56.77;99811.81;128091;1294;115114;-60
2023/07/05 16:44:56;;;;;;;12.50;4.80;;;;;;;24.63;56.93;99815.10;122702;1292;114845;-61
2023/07/05 16:48:57;;;;;;;4.80;3.80;;;;;;;24.43;57.38;99817.91;125795;1306;114913;-63
2023/07/05 16:53:02;;;;;;;10.00;6.60;;;;;;;24.17;57.63;99814.94;125190;1324;115151;-60
2023/07/05 16:57:04;;;;;;;8.40;4.00;;;;;;;23.94;58.66;99805.84;124979;1308;129800;-63
2023/07/05 17:04:56;;;;;;;6.80;3.90;;;;;;;23.45;60.25;99795.23;125108;1312;114904;-62
2023/07/05 17:08:57;;;;;;;7.90;4.20;;;;;;;23.25;60.60;99797.46;124756;1308;114983;-60
2023/07/05 17:13:00;;;;;;;5.20;3.90;;;;;;;23.10;61.22;99803.61;124485;1326;114900;-61
2023/07/05 17:21:20;;;;;;;7.60;4.30;;;;;;;22.85;61.98;99783.87;126140;1297;635730;-60
2023/07/05 17:25:23;;;;;;;7.20;4.70;;;;;;;22.76;62.10;99798.39;128861;1268;129096;-67
2023/07/05 17:29:00;;;;;;;7.50;4.10;;;;;;;22.71;62.21;99794.42;128527;1276;115417;-62
2023/07/05 17:33:07;;;;;;;8.40;4.30;;;;;;;22.66;62.32;99784.65;128997;1281;114949;-61
2023/07/05 17:36:56;;;;;;;;;;;;;;;;;;;;;
2023/07/05 17:40:14;;;;;;;8.60;4.80;;;;;;;22.68;62.55;99780.79;126160;1310;114955;-61
2023/07/05 17:44:33;;;;;;;9.20;4.40;;;;;;;22.71;62.50;99786.10;126685;1306;114929;-61
2023/07/05 17:48:32;;;;;;;6.50;3.70;;;;;;;22.75;62.55;99793.61;126667;1292;129799;-61
2023/07/05 17:52:33;;;;;;;6.60;3.60;;;;;;;22.75;62.37;99799.77;125797;1301;115459;-61
2023/07/05 17:56:35;;;;;;;5.70;3.40;;;;;;;22.72;62.13;99810.14;125098;1306;114941;-61
2023/07/05 18:04:32;;;;;;;9.00;3.50;;;;;;;22.69;62.33;99818.86;125973;1293;636468;-60
2023/07/05 18:08:04;;;;;;;3.70;2.90;;;;;;;22.65;62.32;99814.45;128504;1295;128868;-60
2023/07/05 18:11:31;;;;;;;;;;;;;;;;;;;;;
2023/07/05 18:15:36;;;;;;;8.20;4.20;;;;;;;22.54;62.24;99828.52;128324;1280;114826;-62
2023/07/05 18:19:19;;;;;;;5.70;4.20;;;;;;;22.50;62.30;99843.31;123940;1283;5415637;-63
2023/07/05 18:22:43;;;;;;;5.60;3.60;;;;;;;22.45;62.12;99846.87;127899;1278;114974;-62
2023/07/05 18:26:53;;;;;;;8.20;3.90;;;;;;;22.41;62.57;99849.18;128524;1269;128480;-61
2023/07/05 18:30:46;;;;;;;4.30;3.80;;;;;;;22.34;62.89;99856.94;126999;1303;115453;-61
2023/07/05 18:35:03;;;;;;;6.30;4.20;;;;;;;22.25;62.85;99863.20;126198;1304;115054;-62
2023/07/05 18:38:45;;;;;;;5.90;3.20;;;;;;;22.10;62.18;99872.20;125840;1298;114937;-60
2023/07/05 18:41:49;;;;;;;7.70;3.10;;;;;;;21.97;61.94;99884.86;125484;1320;115093;-60
2023/07/05 18:45:31;;;;;;;4.80;2.70;;;;;;;21.85;61.87;99884.62;125533;1298;129951;-60
2023/07/05 18:48:35;;;;;;;7.60;6.30;;;;;;;21.69;61.82;99881.20;125859;1296;115259;-60
2023/07/05 18:52:03;;;;;;;5.70;4.90;;;;;;;21.57;61.63;99891.69;126079;1298;114968;-61
2023/07/05 18:55:29;;;;;;;4.70;2.80;;;;;;;21.45;61.64;99891.79;126222;1302;114751;-60
2023/07/05 18:59:26;;;;;;;4.10;3.30;;;;;;;21.32;61.70;99903.62;126672;1303;114914;-60
2023/07/05 19:03:18;;;;;;;8.50;3.50;;;;;;;21.17;61.84;99913.46;126111;1303;129729;-62
2023/07/05 19:07:01;;;;;;;8.20;4.40;;;;;;;21.02;61.92;99921.05;125574;1300;115304;-62
2023/07/05 19:11:03;;;;;;;7.70;6.50;;;;;;;20.87;62.22;99928.86;126757;1297;114896;-61
2023/07/05 19:19:07;;;;;;;;;;;;;;;;;;;;;
2023/07/05 19:23:15;;;;;;;4.70;2.80;;;;;;;20.46;62.91;99964.31;127544;1279;127818;-65
2023/07/05 19:26:55;;;;;;;4.80;3.60;;;;;;;20.37;63.22;99972.27;127364;1295;115291;-66
2023/07/05 19:30:47;;;;;;;7.30;3.60;;;;;;;20.27;63.35;99977.20;129449;1287;114916;-64
2023/07/05 19:34:48;;;;;;;8.80;3.90;;;;;;;20.16;63.89;99985.35;126211;1308;114929;-62
2023/07/05 19:38:50;;;;;;;11.40;7.60;;;;;;;20.05;64.28;99988.55;126345;1291;114866;-64
2023/07/05 19:42:51;;;;;;;9.10;4.60;;;;;;;19.91;64.83;99993.99;126917;1293;129692;-66
2023/07/05 19:46:26;;;;;;;6.80;3.80;;;;;;;19.80;65.19;100006.07;126499;1307;115477;-66
2023/07/05 19:50:08;;;;;;;;;;;;;;;;;;;;;
2023/07/05 19:53:28;;;;;;;5.50;4.00;;;;;;;19.55;66.63;100005.09;127085;1285;114887;-63
2023/07/05 19:57:31;;;;;;;7.20;4.00;;;;;;;19.46;66.85;100003.02;127227;1284;114810;-64
2023/07/05 20:01:04;;;;;;;8.30;5.30;;;;;;;19.37;67.08;100006.02;127280;1295;128975;-65
2023/07/05 20:04:29;;;;;;;;;;;;;;;;;;;;;
2023/07/05 20:08:34;;;;;;;7.60;4.50;;;;;;;19.20;67.76;100018.08;127902;1274;114901;-66
2023/07/05 20:11:44;;;;;;;11.10;5.10;;;;;;;19.10;68.41;100022.89;128490;1290;114867;-65
2023/07/05 20:15:40;;;;;;;10.40;4.90;;;;;;;19.04;68.60;100031.77;128714;1290;114934;-65
2023/07/05 20:19:13;;;;;;;10.10;5.50;;;;;;;18.99;69.15;100039.88;127854;1277;129228;-65
2023/07/05 20:23:00;;;;;;;9.80;5.10;;;;;;;18.97;69.72;100049.24;128024;1297;115425;-65
2023/07/05 20:27:03;;;;;;;6.60;4.90;;;;;;;18.97;70.15;100048.52;128258;1297;114672;-66
2023/07/05 20:30:57;;;;;;;;;;;;;;;;;;;;;
2023/07/05 20:34:53;;;;;;;6.30;4.40;;;;;;;19.03;70.93;100055.81;126628;1286;114948;-66
2023/07/05 20:38:11;;;;;;;;;;;;;;;;;;;;;
2023/07/05 20:42:13;;;;;;;12.70;4.60;;;;;;;19.10;71.48;100058.96;126574;1309;115444;-65
2023/07/05 20:45:36;;;;;;;7.40;4.30;;;;;;;19.12;71.68;100057.86;126149;1312;115244;-65
2023/07/05 20:49:07;;;;;;;10.70;4.80;;;;;;;19.14;71.61;100061.14;126161;1293;115023;-65
2023/07/05 20:52:58;;;;;;;12.50;4.80;;;;;;;19.15;71.69;100062.14;126972;1290;114929;-66
2023/07/05 20:56:06;;;;;;;12.50;4.80;;;;;;;19.12;71.75;100066.88;126825;1286;128711;-66
2023/07/05 20:59:21;;;;;;;5.50;4.20;;;;;;;19.09;71.82;100067.85;127538;1297;115382;-67
2023/07/05 21:03:01;;;;;;;4.90;3.30;;;;;;;19.05;71.76;100069.52;128224;1278;114898;-64
2023/07/05 21:06:17;;;;;;;7.10;4.60;;;;;;;19.01;71.93;100070.41;128081;1283;114843;-67
2023/07/05 21:09:44;;;;;;;;;;;;;;;;;;;;;
2023/07/05 21:12:52;;;;;;;8.30;4.90;;;;;;;18.93;72.06;100080.89;129049;1284;128712;-64
2023/07/05 21:16:21;;;;;;;7.30;4.40;;;;;;;18.90;72.26;100082.58;129578;1278;114929;-66
2023/07/05 21:19:25;;;;;;;11.40;6.40;;;;;;;18.87;72.34;100080.89;130236;1258;114729;-66
2023/07/05 21:22:38;;;;;;;;;;;;;;;18.84;72.34;100081.16;129964;1278;114748;-66
2023/07/05 21:26:11;;;;;;;13.20;5.20;;;;;;;18.78;72.57;100085.95;129777;1277;114737;-66
2023/07/05 21:30:14;;;;;;;6.90;4.80;;;;;;;18.72;72.71;100093.35;129692;1277;128528;-66
2023/07/05 21:33:26;;;;;;;9.40;5.20;;;;;;;18.65;72.83;100092.52;129705;1276;115174;-65
2023/07/05 21:36:48;;;;;;;11.10;5.20;;;;;;;18.57;72.79;100094.68;129914;1276;115560;-65
2023/07/05 21:40:08;;;;;;;;;;;;;;;;;;;;;
2023/07/05 21:48:28;;;;;;;9.60;5.70;;;;;;;18.34;73.35;100134.22;129023;1288;129002;-66
2023/07/05 21:56:25;;;;;;;10.60;5.10;;;;;;;18.13;73.33;100141.41;128580;1276;115191;-66
2023/07/05 22:00:03;;;;;;;6.60;5.30;;;;;;;18.03;73.51;100147.85;128165;1271;114973;-67
2023/07/05 22:08:07;;;;;;;10.20;5.10;;;;;;;17.81;73.52;100158.46;126908;1289;128470;-64
2023/07/05 22:12:10;;;;;;;8.20;4.90;;;;;;;17.70;73.43;100164.95;126824;1305;115240;-67
2023/07/05 22:16:17;;;;;;;7.40;5.30;;;;;;;17.59;73.37;100168.89;126347;1295;114878;-66
2023/07/05 22:20:14;;;;;;;10.40;5.00;;;;;;;17.50;73.24;100173.66;125769;1298;114970;-65
2023/07/05 22:24:12;;;;;;;12.10;5.50;;;;;;;17.39;73.32;100172.86;125599;1313;114908;-66
2023/07/05 22:28:14;;;;;;;8.90;4.80;;;;;;;17.30;73.50;100177.35;125603;1299;128457;-65
2023/07/05 22:36:48;;;;;;;9.10;5.50;;;;;;;17.17;73.50;100180.59;125658;1298;638141;-65
2023/07/05 22:40:51;;;;;;;11.90;5.50;;;;;;;17.10;73.58;100185.52;127473;1300;128445;-66
2023/07/05 22:48:41;;;;;;;7.70;5.10;;;;;;;16.97;73.59;100185.56;121728;1300;5423563;-65
2023/07/05 23:01:19;;;;;;;11.30;5.60;;;;;;;16.84;73.75;100184.23;125558;1301;639734;-65
2023/07/05 23:05:21;;;;;;;9.30;4.50;;;;;;;16.77;73.78;100187.09;127439;1295;130941;-66
2023/07/05 23:09:24;;;;;;;16.10;5.60;;;;;;;16.73;73.67;100193.70;126729;1284;115063;-66
2023/07/05 23:30:10;;;;;;;5.90;4.40;;;;;;;16.55;73.34;100218.66;125438;1301;637628;-65
2023/07/05 23:34:13;;;;;;;6.70;4.10;;;;;;;16.49;73.02;100216.96;127930;1278;128785;-64
2023/07/05 23:38:16;;;;;;;9.00;4.70;;;;;;;16.44;73.06;100213.05;127669;1282;115132;-65
2023/07/05 23:42:19;;;;;;;6.70;4.40;;;;;;;16.37;73.15;100218.64;123447;1286;5459981;-64
2023/07/05 23:46:20;;;;;;;7.40;4.40;;;;;;;16.30;72.88;100223.69;126151;1298;114976;-66
2023/07/05 23:50:22;;;;;;;7.10;4.40;;;;;;;16.22;72.70;100231.39;126218;1315;114879;-65
2023/07/05 23:58:25;;;;;;;7.40;4.60;;;;;;;16.10;72.67;100238.96;124841;1328;115314;-65
